sensor_id;sensor_type;location;lat;lon;timestamp;pressure;altitude;pressure_sealevel;temperature;humidity
39267;BME280;24967;51.154;13.812;2023-05-02T00:01:46;99303.81;;;14.51;68.31
39267;BME280;24967;51.154;13.812;2023-05-02T00:04:13;99301.28;;;14.72;67.97
39267;BME280;24967;51.154;13.812;2023-05-02T00:06:40;99297.47;;;14.52;68.28
39267;BME280;24967;51.154;13.812;2023-05-02T00:09:07;99301.81;;;14.53;68.80
39267;BME280;24967;51.154;13.812;2023-05-02T00:11:34;99307.09;;;14.76;67.91
39267;BME280;24967;51.154;13.812;2023-05-02T00:14:01;99307.47;;;14.73;68.15
39267;BME280;24967;51.154;13.812;2023-05-02T00:16:28;99313.09;;;14.78;68.13
39267;BME280;24967;51.154;13.812;2023-05-02T00:18:54;99307.00;;;14.84;67.92
39267;BME280;24967;51.154;13.812;2023-05-02T00:21:21;99319.66;;;14.90;67.81
39267;BME280;24967;51.154;13.812;2023-05-02T00:23:47;99314.31;;;14.90;68.14
39267;BME280;24967;51.154;13.812;2023-05-02T00:26:16;99308.38;;;14.95;68.03
39267;BME280;24967;51.154;13.812;2023-05-02T00:28:42;99320.56;;;14.97;68.08
39267;BME280;24967;51.154;13.812;2023-05-02T00:31:10;99329.56;;;15.04;68.11
39267;BME280;24967;51.154;13.812;2023-05-02T00:33:36;99329.25;;;15.14;68.00
39267;BME280;24967;51.154;13.812;2023-05-02T00:36:03;99326.66;;;15.06;68.13
39267;BME280;24967;51.154;13.812;2023-05-02T00:38:29;99323.00;;;15.07;67.96
39267;BME280;24967;51.154;13.812;2023-05-02T00:40:56;99318.53;;;14.84;67.87
39267;BME280;24967;51.154;13.812;2023-05-02T00:43:23;99320.94;;;14.79;68.72
39267;BME280;24967;51.154;13.812;2023-05-02T00:45:50;99323.38;;;14.89;68.59
39267;BME280;24967;51.154;13.812;2023-05-02T00:48:18;99319.00;;;15.03;66.89
39267;BME280;24967;51.154;13.812;2023-05-02T00:50:45;99314.56;;;15.25;65.88
39267;BME280;24967;51.154;13.812;2023-05-02T00:53:12;99315.13;;;14.91;67.05
39267;BME280;24967;51.154;13.812;2023-05-02T00:55:38;99318.47;;;15.07;66.19
39267;BME280;24967;51.154;13.812;2023-05-02T00:58:07;99318.25;;;14.94;66.18
39267;BME280;24967;51.154;13.812;2023-05-02T01:00:45;99325.66;;;14.77;67.00
39267;BME280;24967;51.154;13.812;2023-05-02T01:03:23;99328.13;;;14.79;67.20
39267;BME280;24967;51.154;13.812;2023-05-02T01:06:07;99322.97;;;14.77;67.50
39267;BME280;24967;51.154;13.812;2023-05-02T01:08:39;99323.44;;;14.81;67.45
39267;BME280;24967;51.154;13.812;2023-05-02T01:11:13;99323.25;;;14.82;67.42
39267;BME280;24967;51.154;13.812;2023-05-02T01:13:42;99324.47;;;14.80;67.60
39267;BME280;24967;51.154;13.812;2023-05-02T01:16:11;99325.00;;;14.75;68.50
39267;BME280;24967;51.154;13.812;2023-05-02T01:18:41;99314.38;;;14.82;67.97
39267;BME280;24967;51.154;13.812;2023-05-02T01:21:09;99322.41;;;14.82;68.33
39267;BME280;24967;51.154;13.812;2023-05-02T01:23:45;99319.38;;;14.85;68.19
39267;BME280;24967;51.154;13.812;2023-05-02T01:26:28;99315.34;;;14.89;68.02
39267;BME280;24967;51.154;13.812;2023-05-02T01:29:00;99318.84;;;14.89;68.25
39267;BME280;24967;51.154;13.812;2023-05-02T01:31:29;99317.63;;;14.92;68.26
39267;BME280;24967;51.154;13.812;2023-05-02T01:33:57;99315.50;;;14.87;68.67
39267;BME280;24967;51.154;13.812;2023-05-02T01:36:28;99308.13;;;14.89;68.62
39267;BME280;24967;51.154;13.812;2023-05-02T01:38:56;99312.00;;;14.87;68.92
39267;BME280;24967;51.154;13.812;2023-05-02T01:41:25;99307.38;;;14.81;68.84
39267;BME280;24967;51.154;13.812;2023-05-02T01:43:53;99313.66;;;14.88;68.45
39267;BME280;24967;51.154;13.812;2023-05-02T01:46:22;99315.69;;;14.86;68.69
39267;BME280;24967;51.154;13.812;2023-05-02T01:48:50;99312.75;;;14.96;68.33
39267;BME280;24967;51.154;13.812;2023-05-02T01:51:19;99316.06;;;14.83;68.34
39267;BME280;24967;51.154;13.812;2023-05-02T01:53:47;99311.91;;;14.80;68.38
39267;BME280;24967;51.154;13.812;2023-05-02T01:56:16;99308.41;;;14.80;68.52
39267;BME280;24967;51.154;13.812;2023-05-02T01:58:44;99310.59;;;14.76;68.60
39267;BME280;24967;51.154;13.812;2023-05-02T02:01:13;99310.44;;;14.78;68.38
39267;BME280;24967;51.154;13.812;2023-05-02T02:03:42;99313.84;;;14.72;69.02
39267;BME280;24967;51.154;13.812;2023-05-02T02:06:10;99319.09;;;14.65;69.33
39267;BME280;24967;51.154;13.812;2023-05-02T02:08:37;99318.97;;;14.73;68.90
39267;BME280;24967;51.154;13.812;2023-05-02T02:11:10;99317.34;;;14.72;68.88
39267;BME280;24967;51.154;13.812;2023-05-02T02:13:43;99322.22;;;14.69;68.89
39267;BME280;24967;51.154;13.812;2023-05-02T02:16:11;99325.72;;;14.69;69.03
39267;BME280;24967;51.154;13.812;2023-05-02T02:18:39;99321.19;;;14.70;68.86
39267;BME280;24967;51.154;13.812;2023-05-02T02:21:13;99321.84;;;14.72;68.92
39267;BME280;24967;51.154;13.812;2023-05-02T02:23:46;99329.06;;;14.71;68.98
39267;BME280;24967;51.154;13.812;2023-05-02T02:26:16;99329.06;;;14.71;68.81
39267;BME280;24967;51.154;13.812;2023-05-02T02:28:44;99331.72;;;14.71;68.87
39267;BME280;24967;51.154;13.812;2023-05-02T02:31:11;99340.59;;;14.72;69.33
39267;BME280;24967;51.154;13.812;2023-05-02T02:33:37;99331.00;;;14.77;69.43
39267;BME280;24967;51.154;13.812;2023-05-02T02:36:07;99335.44;;;15.00;68.82
39267;BME280;24967;51.154;13.812;2023-05-02T02:38:43;99340.78;;;14.85;68.17
39267;BME280;24967;51.154;13.812;2023-05-02T02:41:13;99339.28;;;14.82;67.64
39267;BME280;24967;51.154;13.812;2023-05-02T02:43:47;99341.47;;;14.64;67.73
39267;BME280;24967;51.154;13.812;2023-05-02T02:46:27;99347.56;;;14.58;68.45
39267;BME280;24967;51.154;13.812;2023-05-02T02:49:06;99346.28;;;14.08;69.93
39267;BME280;24967;51.154;13.812;2023-05-02T02:51:38;99357.72;;;13.93;70.87
39267;BME280;24967;51.154;13.812;2023-05-02T02:54:13;99356.81;;;13.78;70.62
39267;BME280;24967;51.154;13.812;2023-05-02T02:56:47;99358.81;;;13.45;71.46
39267;BME280;24967;51.154;13.812;2023-05-02T02:59:25;99356.97;;;13.37;72.28
39267;BME280;24967;51.154;13.812;2023-05-02T03:01:58;99371.56;;;13.26;72.51
39267;BME280;24967;51.154;13.812;2023-05-02T03:04:27;99369.38;;;13.30;73.31
39267;BME280;24967;51.154;13.812;2023-05-02T03:06:55;99372.03;;;13.22;72.90
39267;BME280;24967;51.154;13.812;2023-05-02T03:09:23;99382.72;;;13.30;72.44
39267;BME280;24967;51.154;13.812;2023-05-02T03:11:52;99385.53;;;13.37;72.64
39267;BME280;24967;51.154;13.812;2023-05-02T03:14:18;99383.19;;;13.42;72.33
39267;BME280;24967;51.154;13.812;2023-05-02T03:16:45;99394.28;;;13.62;71.39
39267;BME280;24967;51.154;13.812;2023-05-02T03:19:11;99388.66;;;13.40;71.83
39267;BME280;24967;51.154;13.812;2023-05-02T03:21:38;99392.22;;;13.24;72.50
39267;BME280;24967;51.154;13.812;2023-05-02T03:24:06;99391.19;;;13.42;72.32
39267;BME280;24967;51.154;13.812;2023-05-02T03:26:33;99390.38;;;13.33;71.84
39267;BME280;24967;51.154;13.812;2023-05-02T03:29:00;99395.56;;;13.26;72.08
39267;BME280;24967;51.154;13.812;2023-05-02T03:31:26;99406.16;;;13.59;70.93
39267;BME280;24967;51.154;13.812;2023-05-02T03:33:53;99404.44;;;13.66;70.18
39267;BME280;24967;51.154;13.812;2023-05-02T03:36:19;99405.22;;;13.83;70.02
39267;BME280;24967;51.154;13.812;2023-05-02T03:38:46;99411.50;;;13.59;70.26
39267;BME280;24967;51.154;13.812;2023-05-02T03:41:12;99409.41;;;13.78;69.74
39267;BME280;24967;51.154;13.812;2023-05-02T03:43:40;99413.00;;;13.62;69.55
39267;BME280;24967;51.154;13.812;2023-05-02T03:46:07;99417.88;;;13.42;70.09
39267;BME280;24967;51.154;13.812;2023-05-02T03:48:36;99416.78;;;13.67;69.67
39267;BME280;24967;51.154;13.812;2023-05-02T03:51:04;99412.06;;;13.38;70.06
39267;BME280;24967;51.154;13.812;2023-05-02T03:53:31;99417.09;;;13.25;70.34
39267;BME280;24967;51.154;13.812;2023-05-02T03:55:59;99422.09;;;13.12;70.85
39267;BME280;24967;51.154;13.812;2023-05-02T03:58:26;99426.91;;;13.24;70.24
39267;BME280;24967;51.154;13.812;2023-05-02T04:00:53;99435.25;;;13.21;70.34
39267;BME280;24967;51.154;13.812;2023-05-02T04:03:21;99428.91;;;13.47;69.85
39267;BME280;24967;51.154;13.812;2023-05-02T04:05:48;99436.50;;;13.66;68.84
39267;BME280;24967;51.154;13.812;2023-05-02T04:08:15;99438.53;;;13.56;68.78
39267;BME280;24967;51.154;13.812;2023-05-02T04:10:42;99438.41;;;13.41;68.99
39267;BME280;24967;51.154;13.812;2023-05-02T04:13:08;99448.09;;;13.34;69.62
39267;BME280;24967;51.154;13.812;2023-05-02T04:15:35;99449.78;;;13.27;69.56
39267;BME280;24967;51.154;13.812;2023-05-02T04:18:02;99455.44;;;13.24;69.72
39267;BME280;24967;51.154;13.812;2023-05-02T04:20:29;99462.97;;;13.12;69.93
39267;BME280;24967;51.154;13.812;2023-05-02T04:22:55;99469.66;;;13.16;70.63
39267;BME280;24967;51.154;13.812;2023-05-02T04:25:26;99473.28;;;13.40;69.95
39267;BME280;24967;51.154;13.812;2023-05-02T04:27:53;99472.13;;;13.34;69.48
39267;BME280;24967;51.154;13.812;2023-05-02T04:30:19;99484.16;;;13.30;70.03
39267;BME280;24967;51.154;13.812;2023-05-02T04:32:46;99479.50;;;13.32;69.93
39267;BME280;24967;51.154;13.812;2023-05-02T04:35:13;99487.50;;;13.32;70.07
39267;BME280;24967;51.154;13.812;2023-05-02T04:37:41;99495.81;;;13.54;69.57
39267;BME280;24967;51.154;13.812;2023-05-02T04:40:08;99503.19;;;13.27;69.93
39267;BME280;24967;51.154;13.812;2023-05-02T04:42:35;99503.00;;;13.37;69.63
39267;BME280;24967;51.154;13.812;2023-05-02T04:45:02;99496.34;;;13.33;69.89
39267;BME280;24967;51.154;13.812;2023-05-02T04:47:29;99506.50;;;13.45;70.14
39267;BME280;24967;51.154;13.812;2023-05-02T04:49:55;99504.50;;;13.56;69.50
39267;BME280;24967;51.154;13.812;2023-05-02T04:52:23;99511.34;;;13.34;69.87
39267;BME280;24967;51.154;13.812;2023-05-02T04:54:49;99514.97;;;13.57;69.54
39267;BME280;24967;51.154;13.812;2023-05-02T04:57:16;99514.84;;;13.50;69.68
39267;BME280;24967;51.154;13.812;2023-05-02T04:59:42;99524.63;;;13.74;68.78
39267;BME280;24967;51.154;13.812;2023-05-02T05:02:09;99528.28;;;13.82;68.82
39267;BME280;24967;51.154;13.812;2023-05-02T05:04:36;99530.44;;;13.86;67.92
39267;BME280;24967;51.154;13.812;2023-05-02T05:07:03;99533.59;;;13.90;68.58
39267;BME280;24967;51.154;13.812;2023-05-02T05:09:30;99538.63;;;13.77;68.34
39267;BME280;24967;51.154;13.812;2023-05-02T05:11:57;99540.13;;;13.87;67.78
39267;BME280;24967;51.154;13.812;2023-05-02T05:14:23;99547.31;;;13.87;68.48
39267;BME280;24967;51.154;13.812;2023-05-02T05:16:50;99546.63;;;13.93;68.28
39267;BME280;24967;51.154;13.812;2023-05-02T05:19:17;99552.84;;;13.69;68.09
39267;BME280;24967;51.154;13.812;2023-05-02T05:21:43;99551.34;;;13.74;68.02
39267;BME280;24967;51.154;13.812;2023-05-02T05:24:09;99561.34;;;13.81;67.93
39267;BME280;24967;51.154;13.812;2023-05-02T05:26:37;99569.50;;;13.95;67.22
39267;BME280;24967;51.154;13.812;2023-05-02T05:29:04;99576.03;;;13.77;67.59
39267;BME280;24967;51.154;13.812;2023-05-02T05:31:31;99576.22;;;13.67;67.95
39267;BME280;24967;51.154;13.812;2023-05-02T05:33:58;99576.03;;;13.77;67.52
39267;BME280;24967;51.154;13.812;2023-05-02T05:36:25;99577.25;;;13.66;68.04
39267;BME280;24967;51.154;13.812;2023-05-02T05:38:52;99576.09;;;13.44;67.77
39267;BME280;24967;51.154;13.812;2023-05-02T05:41:18;99581.56;;;13.67;67.47
39267;BME280;24967;51.154;13.812;2023-05-02T05:43:46;99582.06;;;13.79;66.91
39267;BME280;24967;51.154;13.812;2023-05-02T05:46:13;99578.53;;;13.86;66.32
39267;BME280;24967;51.154;13.812;2023-05-02T05:48:39;99580.59;;;13.68;66.27
39267;BME280;24967;51.154;13.812;2023-05-02T05:51:06;99577.53;;;13.79;65.87
39267;BME280;24967;51.154;13.812;2023-05-02T05:53:33;99585.72;;;13.86;65.91
39267;BME280;24967;51.154;13.812;2023-05-02T05:56:07;99589.31;;;14.09;65.37
39267;BME280;24967;51.154;13.812;2023-05-02T05:58:33;99596.72;;;13.99;64.87
39267;BME280;24967;51.154;13.812;2023-05-02T06:01:01;99600.88;;;14.02;65.39
39267;BME280;24967;51.154;13.812;2023-05-02T06:03:28;99611.16;;;14.21;65.16
39267;BME280;24967;51.154;13.812;2023-05-02T06:05:54;99612.59;;;14.40;64.13
39267;BME280;24967;51.154;13.812;2023-05-02T06:08:21;99614.22;;;14.49;64.22
39267;BME280;24967;51.154;13.812;2023-05-02T06:10:47;99619.88;;;14.23;64.52
39267;BME280;24967;51.154;13.812;2023-05-02T06:13:14;99622.53;;;14.31;62.49
39267;BME280;24967;51.154;13.812;2023-05-02T06:15:40;99630.44;;;14.08;62.97
39267;BME280;24967;51.154;13.812;2023-05-02T06:18:08;99634.59;;;14.11;63.14
39267;BME280;24967;51.154;13.812;2023-05-02T06:20:34;99633.69;;;14.35;62.84
39267;BME280;24967;51.154;13.812;2023-05-02T06:23:01;99647.91;;;14.35;62.71
39267;BME280;24967;51.154;13.812;2023-05-02T06:25:27;99651.72;;;14.41;62.93
39267;BME280;24967;51.154;13.812;2023-05-02T06:27:54;99651.88;;;14.56;62.82
39267;BME280;24967;51.154;13.812;2023-05-02T06:30:20;99666.56;;;14.60;61.40
39267;BME280;24967;51.154;13.812;2023-05-02T06:32:47;99664.63;;;14.37;62.19
39267;BME280;24967;51.154;13.812;2023-05-02T06:35:15;99675.66;;;14.34;62.55
39267;BME280;24967;51.154;13.812;2023-05-02T06:37:41;99679.44;;;14.48;63.14
39267;BME280;24967;51.154;13.812;2023-05-02T06:40:09;99687.25;;;14.74;62.78
39267;BME280;24967;51.154;13.812;2023-05-02T06:42:35;99689.63;;;14.61;61.40
39267;BME280;24967;51.154;13.812;2023-05-02T06:45:02;99694.94;;;14.69;60.85
39267;BME280;24967;51.154;13.812;2023-05-02T06:47:29;99697.16;;;14.57;61.43
39267;BME280;24967;51.154;13.812;2023-05-02T06:49:55;99696.78;;;14.77;60.48
39267;BME280;24967;51.154;13.812;2023-05-02T06:52:23;99702.19;;;14.92;61.08
39267;BME280;24967;51.154;13.812;2023-05-02T06:54:49;99706.22;;;14.96;60.21
39267;BME280;24967;51.154;13.812;2023-05-02T06:57:16;99702.34;;;14.59;59.88
39267;BME280;24967;51.154;13.812;2023-05-02T06:59:42;99712.03;;;14.68;59.78
39267;BME280;24967;51.154;13.812;2023-05-02T07:02:09;99716.56;;;14.99;60.21
39267;BME280;24967;51.154;13.812;2023-05-02T07:04:35;99718.69;;;14.72;60.31
39267;BME280;24967;51.154;13.812;2023-05-02T07:07:02;99726.50;;;14.82;60.11
39267;BME280;24967;51.154;13.812;2023-05-02T07:09:30;99722.19;;;14.73;60.34
39267;BME280;24967;51.154;13.812;2023-05-02T07:11:56;99731.78;;;14.51;59.87
39267;BME280;24967;51.154;13.812;2023-05-02T07:14:23;99739.31;;;14.31;60.77
39267;BME280;24967;51.154;13.812;2023-05-02T07:16:49;99738.81;;;14.43;61.11
39267;BME280;24967;51.154;13.812;2023-05-02T07:19:16;99742.44;;;14.67;60.27
39267;BME280;24967;51.154;13.812;2023-05-02T07:21:42;99737.97;;;14.59;59.32
39267;BME280;24967;51.154;13.812;2023-05-02T07:24:09;99742.00;;;14.39;60.57
39267;BME280;24967;51.154;13.812;2023-05-02T07:26:37;99751.31;;;14.68;60.44
39267;BME280;24967;51.154;13.812;2023-05-02T07:29:03;99754.03;;;14.27;60.79
39267;BME280;24967;51.154;13.812;2023-05-02T07:31:31;99759.06;;;14.30;61.22
39267;BME280;24967;51.154;13.812;2023-05-02T07:33:57;99760.09;;;14.04;62.34
39267;BME280;24967;51.154;13.812;2023-05-02T07:36:24;99762.41;;;14.32;62.62
39267;BME280;24967;51.154;13.812;2023-05-02T07:38:50;99765.56;;;14.27;62.71
39267;BME280;24967;51.154;13.812;2023-05-02T07:41:17;99774.28;;;14.05;62.45
39267;BME280;24967;51.154;13.812;2023-05-02T07:43:44;99785.47;;;14.00;63.78
39267;BME280;24967;51.154;13.812;2023-05-02T07:46:11;99787.16;;;14.01;64.07
39267;BME280;24967;51.154;13.812;2023-05-02T07:48:37;99793.50;;;14.08;63.72
39267;BME280;24967;51.154;13.812;2023-05-02T07:51:22;99789.50;;;14.04;63.84
39267;BME280;24967;51.154;13.812;2023-05-02T07:54:14;99795.50;;;13.90;63.91
39267;BME280;24967;51.154;13.812;2023-05-02T07:56:41;99802.34;;;14.17;64.59
39267;BME280;24967;51.154;13.812;2023-05-02T07:59:09;99813.66;;;13.78;65.78
39267;BME280;24967;51.154;13.812;2023-05-02T08:01:35;99815.84;;;13.74;67.41
39267;BME280;24967;51.154;13.812;2023-05-02T08:04:02;99825.22;;;13.95;67.91
39267;BME280;24967;51.154;13.812;2023-05-02T08:06:29;99830.19;;;13.73;68.12
39267;BME280;24967;51.154;13.812;2023-05-02T08:08:56;99830.97;;;13.58;69.49
39267;BME280;24967;51.154;13.812;2023-05-02T08:11:23;99833.84;;;13.56;71.04
39267;BME280;24967;51.154;13.812;2023-05-02T08:13:50;99840.53;;;13.68;71.02
39267;BME280;24967;51.154;13.812;2023-05-02T08:16:18;99843.91;;;13.79;69.57
39267;BME280;24967;51.154;13.812;2023-05-02T08:18:44;99848.78;;;14.16;69.55
39267;BME280;24967;51.154;13.812;2023-05-02T08:21:11;99842.44;;;14.50;70.34
39267;BME280;24967;51.154;13.812;2023-05-02T08:23:40;99842.06;;;15.02;68.68
39267;BME280;24967;51.154;13.812;2023-05-02T08:26:06;99840.31;;;15.17;66.74
39267;BME280;24967;51.154;13.812;2023-05-02T08:28:33;99848.44;;;14.76;64.56
39267;BME280;24967;51.154;13.812;2023-05-02T08:31:00;99849.84;;;14.56;64.02
39267;BME280;24967;51.154;13.812;2023-05-02T08:33:27;99855.00;;;14.65;64.63
39267;BME280;24967;51.154;13.812;2023-05-02T08:35:54;99853.38;;;15.12;63.99
39267;BME280;24967;51.154;13.812;2023-05-02T08:38:20;99856.25;;;15.10;64.12
39267;BME280;24967;51.154;13.812;2023-05-02T08:40:47;99858.66;;;15.37;63.54
39267;BME280;24967;51.154;13.812;2023-05-02T08:43:15;99861.25;;;15.14;62.89
39267;BME280;24967;51.154;13.812;2023-05-02T08:45:43;99859.09;;;15.09;63.05
39267;BME280;24967;51.154;13.812;2023-05-02T08:48:11;99860.72;;;15.18;62.97
39267;BME280;24967;51.154;13.812;2023-05-02T08:50:40;99860.94;;;15.08;63.25
39267;BME280;24967;51.154;13.812;2023-05-02T08:53:09;99868.97;;;15.00;63.72
39267;BME280;24967;51.154;13.812;2023-05-02T08:55:37;99864.63;;;14.99;63.49
39267;BME280;24967;51.154;13.812;2023-05-02T08:58:05;99875.88;;;14.70;63.45
39267;BME280;24967;51.154;13.812;2023-05-02T09:00:36;99874.03;;;14.95;64.37
39267;BME280;24967;51.154;13.812;2023-05-02T09:03:06;99877.06;;;14.92;63.16
39267;BME280;24967;51.154;13.812;2023-05-02T09:05:40;99881.09;;;14.63;63.56
39267;BME280;24967;51.154;13.812;2023-05-02T09:08:07;99879.72;;;14.92;63.72
39267;BME280;24967;51.154;13.812;2023-05-02T09:10:34;99886.06;;;14.99;64.13
39267;BME280;24967;51.154;13.812;2023-05-02T09:13:29;99890.16;;;15.26;63.68
39267;BME280;24967;51.154;13.812;2023-05-02T09:15:56;99886.00;;;15.24;62.44
39267;BME280;24967;51.154;13.812;2023-05-02T09:18:24;99889.00;;;15.21;62.90
39267;BME280;24967;51.154;13.812;2023-05-02T09:20:53;99890.34;;;15.64;62.94
39267;BME280;24967;51.154;13.812;2023-05-02T09:23:24;99895.09;;;15.46;61.01
39267;BME280;24967;51.154;13.812;2023-05-02T09:25:57;99899.75;;;15.60;60.78
39267;BME280;24967;51.154;13.812;2023-05-02T09:28:37;99901.28;;;15.54;62.76
39267;BME280;24967;51.154;13.812;2023-05-02T09:31:05;99904.53;;;15.81;63.09
39267;BME280;24967;51.154;13.812;2023-05-02T09:33:32;99909.78;;;15.66;61.69
39267;BME280;24967;51.154;13.812;2023-05-02T09:36:00;99913.81;;;15.70;60.92
39267;BME280;24967;51.154;13.812;2023-05-02T09:38:26;99914.16;;;15.59;59.95
39267;BME280;24967;51.154;13.812;2023-05-02T09:40:53;99915.84;;;15.52;57.85
39267;BME280;24967;51.154;13.812;2023-05-02T09:43:20;99910.34;;;15.53;58.08
39267;BME280;24967;51.154;13.812;2023-05-02T09:45:55;99906.34;;;15.89;58.82
39267;BME280;24967;51.154;13.812;2023-05-02T09:48:22;99920.44;;;16.14;60.04
39267;BME280;24967;51.154;13.812;2023-05-02T09:50:48;99913.63;;;16.03;58.60
39267;BME280;24967;51.154;13.812;2023-05-02T09:53:16;99922.09;;;16.15;59.90
39267;BME280;24967;51.154;13.812;2023-05-02T09:55:42;99914.03;;;16.46;59.31
39267;BME280;24967;51.154;13.812;2023-05-02T09:58:20;99921.34;;;16.29;59.05
39267;BME280;24967;51.154;13.812;2023-05-02T10:00:48;99924.38;;;16.26;58.90
39267;BME280;24967;51.154;13.812;2023-05-02T10:03:17;99931.88;;;16.08;59.12
39267;BME280;24967;51.154;13.812;2023-05-02T10:05:44;99927.81;;;15.89;59.66
39267;BME280;24967;51.154;13.812;2023-05-02T10:08:12;99917.78;;;15.83;60.19
39267;BME280;24967;51.154;13.812;2023-05-02T10:10:44;99930.69;;;15.79;61.25
39267;BME280;24967;51.154;13.812;2023-05-02T10:13:12;99929.81;;;15.87;60.90
39267;BME280;24967;51.154;13.812;2023-05-02T10:15:42;99936.09;;;16.02;61.34
39267;BME280;24967;51.154;13.812;2023-05-02T10:18:11;99933.94;;;15.97;62.04
39267;BME280;24967;51.154;13.812;2023-05-02T10:20:42;99931.91;;;16.54;64.35
39267;BME280;24967;51.154;13.812;2023-05-02T10:23:10;99928.06;;;16.94;62.20
39267;BME280;24967;51.154;13.812;2023-05-02T10:25:37;99933.81;;;17.06;60.00
39267;BME280;24967;51.154;13.812;2023-05-02T10:28:06;99935.78;;;16.74;59.42
39267;BME280;24967;51.154;13.812;2023-05-02T10:30:34;99936.97;;;16.71;60.20
39267;BME280;24967;51.154;13.812;2023-05-02T10:33:02;99936.69;;;16.89;59.94
39267;BME280;24967;51.154;13.812;2023-05-02T10:35:29;99941.63;;;16.32;61.53
39267;BME280;24967;51.154;13.812;2023-05-02T10:37:56;99935.25;;;16.10;62.60
39267;BME280;24967;51.154;13.812;2023-05-02T10:40:24;99941.72;;;16.15;62.06
39267;BME280;24967;51.154;13.812;2023-05-02T10:42:50;99955.25;;;15.91;60.75
39267;BME280;24967;51.154;13.812;2023-05-02T10:45:32;99943.56;;;15.84;62.84
39267;BME280;24967;51.154;13.812;2023-05-02T10:48:12;99945.78;;;16.11;62.25
39267;BME280;24967;51.154;13.812;2023-05-02T10:50:43;99948.13;;;16.37;62.76
39267;BME280;24967;51.154;13.812;2023-05-02T10:53:30;99951.38;;;16.24;62.45
39267;BME280;24967;51.154;13.812;2023-05-02T10:56:08;99952.28;;;16.40;63.65
39267;BME280;24967;51.154;13.812;2023-05-02T10:58:36;99950.53;;;16.70;64.53
39267;BME280;24967;51.154;13.812;2023-05-02T11:01:35;99954.50;;;16.82;62.38
39267;BME280;24967;51.154;13.812;2023-05-02T11:04:07;99950.91;;;17.13;61.10
39267;BME280;24967;51.154;13.812;2023-05-02T11:06:35;99956.69;;;17.02;60.70
39267;BME280;24967;51.154;13.812;2023-05-02T11:09:32;99947.88;;;16.93;60.88
39267;BME280;24967;51.154;13.812;2023-05-02T11:11:59;99946.69;;;16.72;60.55
39267;BME280;24967;51.154;13.812;2023-05-02T11:14:42;99949.34;;;16.72;60.38
39267;BME280;24967;51.154;13.812;2023-05-02T11:17:10;99953.78;;;16.42;61.69
39267;BME280;24967;51.154;13.812;2023-05-02T11:22:54;99957.66;;;16.63;63.62
39267;BME280;24967;51.154;13.812;2023-05-02T11:25:28;99952.41;;;16.69;61.80
39267;BME280;24967;51.154;13.812;2023-05-02T11:27:55;99957.69;;;16.86;60.81
39267;BME280;24967;51.154;13.812;2023-05-02T11:30:36;99956.81;;;17.08;59.09
39267;BME280;24967;51.154;13.812;2023-05-02T11:33:17;99953.22;;;17.31;59.86
39267;BME280;24967;51.154;13.812;2023-05-02T11:35:45;99958.84;;;17.21;59.42
39267;BME280;24967;51.154;13.812;2023-05-02T11:38:19;99955.78;;;17.24;58.88
39267;BME280;24967;51.154;13.812;2023-05-02T11:40:54;99957.38;;;17.04;60.14
39267;BME280;24967;51.154;13.812;2023-05-02T11:43:21;99955.94;;;16.47;60.34
39267;BME280;24967;51.154;13.812;2023-05-02T11:45:49;99959.44;;;16.24;60.77
39267;BME280;24967;51.154;13.812;2023-05-02T11:48:18;99968.34;;;16.25;61.95
39267;BME280;24967;51.154;13.812;2023-05-02T11:50:47;99964.22;;;16.37;63.01
39267;BME280;24967;51.154;13.812;2023-05-02T11:53:17;99966.63;;;16.55;63.20
39267;BME280;24967;51.154;13.812;2023-05-02T11:55:45;99970.72;;;16.66;62.10
39267;BME280;24967;51.154;13.812;2023-05-02T11:58:13;99975.50;;;16.79;60.91
39267;BME280;24967;51.154;13.812;2023-05-02T12:00:40;99972.41;;;16.90;60.14
39267;BME280;24967;51.154;13.812;2023-05-02T12:03:22;99971.97;;;16.32;59.91
39267;BME280;24967;51.154;13.812;2023-05-02T12:05:49;99974.41;;;16.19;60.33
39267;BME280;24967;51.154;13.812;2023-05-02T12:08:20;99978.78;;;16.12;60.64
39267;BME280;24967;51.154;13.812;2023-05-02T12:10:48;99972.72;;;15.78;61.01
39267;BME280;24967;51.154;13.812;2023-05-02T12:13:16;99975.09;;;16.13;61.51
39267;BME280;24967;51.154;13.812;2023-05-02T12:15:43;99978.50;;;16.30;61.76
39267;BME280;24967;51.154;13.812;2023-05-02T12:18:11;99977.22;;;16.25;60.36
39267;BME280;24967;51.154;13.812;2023-05-02T12:20:39;99991.72;;;16.08;59.82
39267;BME280;24967;51.154;13.812;2023-05-02T12:23:06;99982.34;;;16.04;61.56
39267;BME280;24967;51.154;13.812;2023-05-02T12:25:37;99985.06;;;15.96;61.63
39267;BME280;24967;51.154;13.812;2023-05-02T12:28:04;99991.38;;;16.11;61.68
39267;BME280;24967;51.154;13.812;2023-05-02T12:30:31;99989.69;;;16.10;61.52
39267;BME280;24967;51.154;13.812;2023-05-02T12:32:59;99993.13;;;15.96;62.77
39267;BME280;24967;51.154;13.812;2023-05-02T12:35:27;99997.56;;;16.12;62.70
39267;BME280;24967;51.154;13.812;2023-05-02T12:38:07;99994.22;;;16.10;62.90
39267;BME280;24967;51.154;13.812;2023-05-02T12:40:33;99985.03;;;16.35;62.26
39267;BME280;24967;51.154;13.812;2023-05-02T12:43:01;99980.91;;;16.47;63.00
39267;BME280;24967;51.154;13.812;2023-05-02T12:45:28;99984.22;;;16.81;62.34
39267;BME280;24967;51.154;13.812;2023-05-02T12:47:58;99977.47;;;16.85;61.24
39267;BME280;24967;51.154;13.812;2023-05-02T12:50:34;99981.34;;;17.05;60.92
39267;BME280;24967;51.154;13.812;2023-05-02T12:53:03;99981.03;;;17.38;59.46
39267;BME280;24967;51.154;13.812;2023-05-02T12:55:31;99973.97;;;17.67;57.71
39267;BME280;24967;51.154;13.812;2023-05-02T12:58:01;99971.38;;;17.88;58.59
39267;BME280;24967;51.154;13.812;2023-05-02T13:00:28;99977.81;;;17.87;55.44
39267;BME280;24967;51.154;13.812;2023-05-02T13:02:54;99967.84;;;17.73;56.03